Time;durP1;ratioP1;P1;durP2;ratioP2;P2;SDS_P1;SDS_P2;PMS_P1;PMS_P2;Temp;Humidity;BMP_temperature;BMP_pressure;BME280_temperature;BME280_humidity;BME280_pressure;Samples;Min_cycle;Max_cycle;Signal;HPM_P1;HPM_P2
2023/11/24 00:02:46;;;;;;;19.77;6.03;;;;;;;9.59;100.00;101566.72;10376582;28;20108;-71
2023/11/24 00:07:46;;;;;;;4.57;3.20;;;;;;;9.40;100.00;101574.22;10377258;28;20034;-72
2023/11/24 00:12:46;;;;;;;11.57;4.05;;;;;;;9.38;100.00;101567.28;10376462;28;20477;-72
2023/11/24 00:17:47;;;;;;;15.40;4.18;;;;;;;9.32;100.00;101571.56;10376494;28;20033;-72
2023/11/24 00:22:48;;;;;;;14.02;2.53;;;;;;;9.34;100.00;101574.91;10375081;28;20064;-71
2023/11/24 00:27:51;;;;;;;12.90;3.17;;;;;;;9.46;100.00;101578.94;10374877;28;20099;-71
2023/11/24 00:32:51;;;;;;;10.02;3.78;;;;;;;9.53;100.00;101560.16;10376123;28;20037;-71
2023/11/24 00:37:52;;;;;;;12.80;3.20;;;;;;;9.37;100.00;101546.69;10375329;28;20436;-71
2023/11/24 00:42:52;;;;;;;11.57;3.63;;;;;;;9.18;100.00;101550.63;10375081;28;20088;-72
2023/11/24 00:47:53;;;;;;;17.70;6.05;;;;;;;8.88;100.00;101547.66;10372867;28;20538;-72
2023/11/24 00:52:53;;;;;;;20.58;4.43;;;;;;;8.69;100.00;101542.59;10373295;28;20121;-72
2023/11/24 00:57:54;;;;;;;19.77;4.78;;;;;;;8.77;100.00;101558.78;10374993;28;20041;-71
2023/11/24 01:02:55;;;;;;;7.80;2.13;;;;;;;8.61;100.00;101540.72;10373758;28;20077;-71
2023/11/24 01:07:55;;;;;;;8.45;1.98;;;;;;;8.48;100.00;101540.41;10388225;28;20346;-71
2023/11/24 01:12:57;;;;;;;7.55;2.08;;;;;;;8.49;100.00;101544.81;10372317;28;20042;-71
2023/11/24 01:17:59;;;;;;;12.13;2.60;;;;;;;8.32;100.00;101533.09;10373357;28;20038;-71
2023/11/24 01:23:00;;;;;;;7.00;2.58;;;;;;;8.28;100.00;101545.25;10371845;28;20382;-71
2023/11/24 01:28:01;;;;;;;21.40;3.70;;;;;;;8.37;100.00;101549.66;10373047;28;20038;-71
2023/11/24 01:33:01;;;;;;;7.10;3.30;;;;;;;8.32;100.00;101568.19;10371501;28;20113;-70
2023/11/24 01:38:03;;;;;;;8.07;3.53;;;;;;;7.91;100.00;101568.06;10372623;28;20038;-70
2023/11/24 01:43:03;;;;;;;11.25;3.15;;;;;;;7.69;100.00;101546.13;10371135;28;20370;-70
2023/11/24 01:48:05;;;;;;;4.28;2.50;;;;;;;7.62;100.00;101541.53;10371270;28;20073;-71
2023/11/24 01:53:05;;;;;;;10.93;3.75;;;;;;;7.52;100.00;101524.66;10370968;28;20104;-71
2023/11/24 01:58:06;;;;;;;10.68;3.78;;;;;;;7.50;100.00;101518.56;10369833;28;20045;-71
2023/11/24 02:03:07;;;;;;;11.85;2.90;;;;;;;7.51;100.00;101512.19;10371701;28;20544;-71
2023/11/24 02:08:07;;;;;;;8.77;3.38;;;;;;;7.52;100.00;101517.41;10372183;28;20390;-71
2023/11/24 02:13:08;;;;;;;5.10;2.78;;;;;;;7.48;100.00;101517.91;10370832;28;20072;-71
2023/11/24 02:18:08;;;;;;;9.05;2.58;;;;;;;7.40;100.00;101518.69;10371158;28;20185;-71
2023/11/24 02:23:08;;;;;;;6.90;2.30;;;;;;;7.34;100.00;101509.44;10374335;28;20043;-71
2023/11/24 02:28:09;;;;;;;9.18;3.90;;;;;;;7.35;100.00;101503.03;10378830;28;20473;-70
2023/11/24 02:33:10;;;;;;;7.03;2.95;;;;;;;7.39;100.00;101492.75;10379878;28;20086;-71
2023/11/24 02:38:11;;;;;;;9.35;2.30;;;;;;;7.36;100.00;101493.09;10361394;28;20030;-71
2023/11/24 02:43:12;;;;;;;7.10;2.75;;;;;;;7.37;100.00;101481.28;10378802;28;20045;-70
2023/11/24 02:48:13;;;;;;;10.88;2.47;;;;;;;7.61;100.00;101470.59;10378828;28;20030;-71
2023/11/24 02:53:14;;;;;;;3.50;2.83;;;;;;;7.65;100.00;101457.63;10377750;28;20413;-70
2023/11/24 02:58:15;;;;;;;12.75;3.63;;;;;;;7.69;100.00;101449.06;10378102;28;20442;-71
2023/11/24 03:03:16;;;;;;;2.20;1.70;;;;;;;7.76;100.00;101443.03;10378374;28;20054;-70
2023/11/24 03:08:17;;;;;;;14.50;3.78;;;;;;;7.83;100.00;101439.47;10377741;28;20038;-71
2023/11/24 03:13:19;;;;;;;12.00;2.28;;;;;;;7.90;100.00;101435.09;10375792;28;20110;-70
2023/11/24 03:18:20;;;;;;;2.67;2.13;;;;;;;7.87;100.00;101435.44;10377762;28;20073;-71
2023/11/24 03:23:20;;;;;;;5.53;2.38;;;;;;;7.89;100.00;101428.03;10376595;28;20073;-71
2023/11/24 03:28:20;;;;;;;8.05;3.00;;;;;;;7.95;100.00;101421.13;10376924;28;20303;-71
2023/11/24 03:33:21;;;;;;;4.72;2.72;;;;;;;8.14;100.00;101417.25;10376773;28;20030;-71
2023/11/24 03:38:21;;;;;;;8.80;2.10;;;;;;;8.31;100.00;101400.03;10376842;28;20446;-71
2023/11/24 03:43:22;;;;;;;9.00;3.00;;;;;;;8.42;100.00;101403.44;10376726;28;20050;-71
2023/11/24 03:48:22;;;;;;;4.00;2.03;;;;;;;8.16;100.00;101399.03;10376450;28;20120;-70
2023/11/24 03:53:22;;;;;;;8.38;1.45;;;;;;;8.18;100.00;101394.31;10376190;28;20428;-70
2023/11/24 03:58:23;;;;;;;5.05;4.03;;;;;;;8.09;100.00;101409.66;10376067;28;20136;-70
2023/11/24 04:03:23;;;;;;;11.40;2.88;;;;;;;7.88;100.00;101403.91;10374004;28;20137;-70
2023/11/24 04:08:24;;;;;;;7.60;3.05;;;;;;;7.91;100.00;101392.78;10375572;28;20393;-71
2023/11/24 04:13:24;;;;;;;5.65;2.33;;;;;;;7.91;100.00;101387.41;10373923;28;20026;-71
2023/11/24 04:18:25;;;;;;;9.30;2.25;;;;;;;8.04;100.00;101390.47;10373691;28;20069;-71
2023/11/24 04:23:25;;;;;;;10.20;2.35;;;;;;;7.87;100.00;101389.59;10356770;28;20541;-71
2023/11/24 04:28:26;;;;;;;6.75;2.25;;;;;;;7.63;100.00;101390.44;10373644;28;20038;-72
2023/11/24 04:33:26;;;;;;;6.03;2.13;;;;;;;7.36;100.00;101377.22;10374330;28;20041;-71
2023/11/24 04:38:27;;;;;;;7.93;2.78;;;;;;;7.14;100.00;101378.69;10374402;28;20385;-71
2023/11/24 04:43:28;;;;;;;10.43;4.07;;;;;;;7.22;100.00;101367.94;10374622;28;20121;-70
2023/11/24 04:48:29;;;;;;;4.13;2.47;;;;;;;7.48;100.00;101383.16;10372141;28;20042;-71
2023/11/24 04:53:30;;;;;;;10.77;4.05;;;;;;;7.53;100.00;101388.88;10373637;28;20033;-72
2023/11/24 04:58:31;;;;;;;10.75;2.72;;;;;;;7.49;100.00;101380.28;10373535;28;20034;-72
2023/11/24 05:03:31;;;;;;;17.98;3.47;;;;;;;7.35;100.00;101375.56;10374430;28;20394;-72
2023/11/24 05:08:32;;;;;;;7.30;2.65;;;;;;;7.27;100.00;101370.97;10373272;28;20088;-72
2023/11/24 05:13:32;;;;;;;5.30;2.33;;;;;;;7.29;100.00;101387.81;10372778;28;20033;-72
2023/11/24 05:18:33;;;;;;;2.80;2.60;;;;;;;7.12;100.00;101360.00;10371743;28;20041;-72
2023/11/24 05:23:34;;;;;;;0.40;0.40;;;;;;;7.09;100.00;101356.81;10372384;28;20386;-72
2023/11/24 05:28:34;;;;;;;0.40;0.40;;;;;;;7.01;100.00;101352.22;10373244;28;20041;-72
2023/11/24 05:33:34;;;;;;;0.50;0.50;;;;;;;7.09;100.00;101346.03;10372356;28;20038;-72
2023/11/24 05:38:37;;;;;;;0.70;0.70;;;;;;;6.99;100.00;101332.69;10371997;28;20038;-72
2023/11/24 05:43:37;;;;;;;0.40;0.40;;;;;;;6.90;100.00;101333.69;10371918;28;20053;-72
2023/11/24 05:48:37;;;;;;;0.40;0.40;;;;;;;6.99;100.00;101317.38;10371483;28;20084;-72
2023/11/24 05:53:38;;;;;;;0.35;0.35;;;;;;;7.09;100.00;101333.41;10371642;28;20104;-72
2023/11/24 05:58:38;;;;;;;0.40;0.40;;;;;;;7.28;100.00;101331.44;10371251;28;20421;-72
2023/11/24 06:03:39;;;;;;;0.50;0.50;;;;;;;7.12;100.00;101332.22;10372302;28;20057;-75
2023/11/24 06:08:39;;;;;;;0.57;0.57;;;;;;;7.14;100.00;101341.81;10371960;28;20038;-71
2023/11/24 06:13:39;;;;;;;0.35;0.35;;;;;;;7.20;100.00;101333.06;10371386;28;20038;-72
2023/11/24 06:18:40;;;;;;;0.40;0.40;;;;;;;7.23;100.00;101318.44;10370989;28;20409;-72
2023/11/24 06:23:40;;;;;;;0.50;0.50;;;;;;;7.25;100.00;101321.81;10370961;28;20029;-72
2023/11/24 06:28:41;;;;;;;0.50;0.50;;;;;;;7.41;100.00;101315.63;10370949;28;20049;-72
2023/11/24 06:33:41;;;;;;;0.40;0.40;;;;;;;7.48;100.00;101305.84;10371684;28;20034;-72
2023/11/24 06:38:42;;;;;;;0.40;0.40;;;;;;;7.52;100.00;101323.34;10370041;28;20043;-72
2023/11/24 06:43:42;;;;;;;1.75;1.50;;;;;;;7.62;100.00;101333.97;10369807;28;20061;-71
2023/11/24 06:48:42;;;;;;;0.43;0.43;;;;;;;7.32;100.00;101362.41;10371868;28;20049;-71
2023/11/24 06:53:43;;;;;;;0.40;0.40;;;;;;;7.02;100.00;101355.75;10371276;28;20084;-71
2023/11/24 06:58:43;;;;;;;0.40;0.40;;;;;;;6.81;100.00;101367.78;10372235;28;20121;-72
2023/11/24 07:03:44;;;;;;;0.40;0.40;;;;;;;6.90;100.00;101365.97;10370543;28;20046;-72
2023/11/24 07:08:44;;;;;;;0.47;0.47;;;;;;;6.81;100.00;101351.63;10374552;28;20107;-72
2023/11/24 07:13:44;;;;;;;0.45;0.45;;;;;;;6.84;100.00;101356.69;10377595;28;20120;-72
2023/11/24 07:18:45;;;;;;;0.50;0.50;;;;;;;6.74;100.00;101326.38;10376634;28;20095;-72
2023/11/24 07:23:45;;;;;;;0.47;0.47;;;;;;;6.77;100.00;101317.97;10376854;28;20064;-72
2023/11/24 07:28:46;;;;;;;0.50;0.50;;;;;;;6.68;100.00;101302.81;10377189;28;20045;-72
2023/11/24 07:33:49;;;;;;;0.30;0.30;;;;;;;6.93;100.00;101306.44;10377234;28;20037;-72
2023/11/24 07:38:49;;;;;;;1.73;1.63;;;;;;;6.99;100.00;101338.91;10375804;28;20041;-74
2023/11/24 07:43:50;;;;;;;0.45;0.45;;;;;;;6.52;100.00;101354.69;10375026;28;20034;-75
2023/11/24 07:48:50;;;;;;;0.52;0.52;;;;;;;6.36;100.00;101357.28;10376326;28;20385;-74
2023/11/24 07:53:50;;;;;;;0.57;0.57;;;;;;;6.33;100.00;101344.16;10375681;28;20056;-73
2023/11/24 07:58:51;;;;;;;0.50;0.50;;;;;;;6.27;100.00;101341.09;10374995;28;20041;-73
2023/11/24 08:03:51;;;;;;;2.88;2.78;;;;;;;6.32;100.00;101369.34;10378160;28;20076;-74
2023/11/24 08:08:52;;;;;;;0.50;0.50;;;;;;;6.09;100.00;101340.28;10375837;28;20038;-75
2023/11/24 08:13:53;;;;;;;0.50;0.50;;;;;;;5.88;100.00;101334.41;10376373;28;20459;-74
2023/11/24 08:18:54;;;;;;;0.52;0.52;;;;;;;5.80;100.00;101353.97;10376063;28;20048;-75
2023/11/24 08:23:54;;;;;;;0.50;0.50;;;;;;;5.79;100.00;101363.06;10374111;28;20034;-74
2023/11/24 08:28:54;;;;;;;0.50;0.50;;;;;;;5.80;100.00;101332.47;10376331;28;20034;-74
2023/11/24 08:33:55;;;;;;;0.50;0.50;;;;;;;5.73;100.00;101321.50;10376028;28;20037;-74
2023/11/24 08:38:55;;;;;;;0.50;0.50;;;;;;;6.44;100.00;101308.91;10390009;28;20061;-74
2023/11/24 08:43:56;;;;;;;13.68;4.70;;;;;;;6.81;100.00;101292.41;10374669;28;20493;-73
2023/11/24 08:48:56;;;;;;;16.92;3.85;;;;;;;6.77;100.00;101307.22;10374368;28;20090;-73
2023/11/24 08:53:56;;;;;;;11.60;3.03;;;;;;;7.03;100.00;101290.97;10375581;28;20418;-73
2023/11/24 08:58:57;;;;;;;12.60;3.25;;;;;;;7.35;100.00;101294.72;10373660;28;20041;-73
2023/11/24 09:03:58;;;;;;;8.40;3.33;;;;;;;7.37;100.00;101300.78;10375147;28;20470;-73
2023/11/24 09:08:58;;;;;;;23.17;4.88;;;;;;;7.22;100.00;101273.66;10374542;28;20125;-73
2023/11/24 09:13:59;;;;;;;17.45;3.42;;;;;;;7.13;100.00;101280.03;10373370;28;20469;-73
2023/11/24 09:18:59;;;;;;;12.57;3.05;;;;;;;7.36;100.00;101269.47;10370886;28;20104;-73
2023/11/24 09:24:01;;;;;;;18.75;3.78;;;;;;;7.42;100.00;101276.88;10372239;28;20484;-73
2023/11/24 09:29:01;;;;;;;4.88;3.00;;;;;;;7.07;100.00;101280.69;10372687;28;20504;-73
2023/11/24 09:34:01;;;;;;;15.00;4.20;;;;;;;7.39;100.00;101278.03;10372971;28;20045;-73
2023/11/24 09:39:02;;;;;;;14.85;4.80;;;;;;;8.48;100.00;101283.97;10373161;28;20071;-73
2023/11/24 09:44:03;;;;;;;8.40;4.03;;;;;;;9.03;100.00;101278.50;10372134;28;20458;-73
2023/11/24 09:49:05;;;;;;;9.73;3.45;;;;;;;9.51;100.00;101278.34;10371866;28;20041;-73
2023/11/24 09:54:06;;;;;;;7.05;5.07;;;;;;;9.09;100.00;101282.31;10354790;28;20450;-73
2023/11/24 09:59:08;;;;;;;20.08;3.03;;;;;;;9.32;100.00;101274.25;10372353;28;20040;-72
2023/11/24 10:04:10;;;;;;;11.77;3.47;;;;;;;10.02;100.00;101286.66;10373548;28;20054;-73
2023/11/24 10:09:10;;;;;;;14.30;4.38;;;;;;;7.84;100.00;101284.78;10373351;28;20040;-73
2023/11/24 10:14:12;;;;;;;11.07;3.10;;;;;;;7.46;100.00;101284.44;10372686;28;20468;-73
2023/11/24 10:19:15;;;;;;;15.90;2.95;;;;;;;9.10;100.00;101291.31;10372559;28;20038;-73
2023/11/24 10:24:16;;;;;;;4.35;2.05;;;;;;;9.00;100.00;101308.56;10371092;28;20053;-73
2023/11/24 10:29:16;;;;;;;12.02;2.75;;;;;;;7.85;100.00;101293.72;10353738;28;20034;-73
2023/11/24 10:34:17;;;;;;;3.53;1.30;;;;;;;6.94;100.00;101305.41;10371535;28;20034;-73
2023/11/24 10:39:17;;;;;;;1.20;1.13;;;;;;;6.26;100.00;101265.97;10371178;28;20109;-73
2023/11/24 10:44:17;;;;;;;3.53;1.80;;;;;;;6.54;100.00;101263.91;10358731;28;20033;-73
2023/11/24 10:49:29;;;;;;;16.65;3.55;;;;;;;7.14;100.00;101249.41;10378953;28;20037;-73
2023/11/24 10:54:38;;;;;;;9.10;2.47;;;;;;;8.63;100.00;101236.34;10361642;28;20458;-73
2023/11/24 10:59:38;;;;;;;8.82;4.45;;;;;;;8.16;100.00;101231.78;10377322;28;20054;-73
2023/11/24 11:04:39;;;;;;;12.50;3.67;;;;;;;9.19;100.00;101228.91;10375860;28;20041;-73
2023/11/24 11:09:51;;;;;;;10.80;3.63;;;;;;;8.27;100.00;101239.50;10375832;28;20034;-73
2023/11/24 11:14:51;;;;;;;5.85;3.03;;;;;;;8.91;100.00;101231.31;10362237;28;20049;-73
2023/11/24 11:20:22;;;;;;;11.63;2.95;;;;;;;9.07;100.00;101212.28;10359903;28;20068;-73
2023/11/24 11:25:23;;;;;;;20.90;3.28;;;;;;;9.54;100.00;101197.72;10359551;28;20046;-72
2023/11/24 11:30:26;;;;;;;9.35;4.05;;;;;;;8.58;100.00;101215.28;10376692;28;20038;-72
2023/11/24 11:35:28;;;;;;;17.63;3.88;;;;;;;8.97;100.00;101190.06;10378305;28;20042;-73
2023/11/24 11:40:33;;;;;;;6.50;2.95;;;;;;;9.60;100.00;101189.88;10375234;28;20033;-72
2023/11/24 11:45:34;;;;;;;24.67;4.00;;;;;;;9.50;100.00;101206.34;10375601;28;20433;-73
2023/11/24 11:50:35;;;;;;;6.88;3.45;;;;;;;8.43;100.00;101208.97;10359676;28;20038;-73
2023/11/24 11:55:35;;;;;;;12.02;4.45;;;;;;;8.40;100.00;101219.25;10358253;28;20034;-73
2023/11/24 12:00:35;;;;;;;24.42;5.22;;;;;;;8.95;100.00;101216.41;10375834;28;20054;-73
2023/11/24 12:05:37;;;;;;;16.88;3.75;;;;;;;8.15;100.00;101219.31;10358699;28;20125;-74
2023/11/24 12:10:37;;;;;;;25.13;5.65;;;;;;;7.36;100.00;101192.16;10358983;28;20462;-73
2023/11/24 12:15:38;;;;;;;16.40;4.63;;;;;;;7.64;100.00;101171.09;10375008;28;20038;-73
2023/11/24 12:20:39;;;;;;;16.15;6.47;;;;;;;7.80;100.00;101151.34;10375957;28;20032;-73
2023/11/24 12:25:39;;;;;;;18.75;5.38;;;;;;;8.34;100.00;101174.91;10374145;28;20044;-74
2023/11/24 12:30:43;;;;;;;16.27;4.85;;;;;;;7.30;100.00;101159.69;10374973;28;20096;-73
2023/11/24 12:35:54;;;;;;;14.98;6.05;;;;;;;7.01;100.00;101179.03;10357658;28;20033;-73
2023/11/24 12:40:55;;;;;;;20.73;6.10;;;;;;;7.61;100.00;101160.66;10373525;28;20030;-73
2023/11/24 12:45:57;;;;;;;21.42;5.20;;;;;;;8.07;100.00;101173.47;10375730;28;20036;-73
2023/11/24 12:50:58;;;;;;;24.02;5.57;;;;;;;7.75;100.00;101155.56;10374153;28;20053;-74
2023/11/24 12:55:59;;;;;;;14.20;5.40;;;;;;;7.57;100.00;101151.22;10357404;28;20450;-74
2023/11/24 13:00:59;;;;;;;32.17;4.97;;;;;;;7.51;100.00;101134.91;10388927;28;20061;-73
2023/11/24 13:06:00;;;;;;;17.88;5.75;;;;;;;8.05;100.00;101135.91;10373553;28;20406;-73
2023/11/24 13:11:00;;;;;;;20.55;4.93;;;;;;;7.93;100.00;101140.00;10374007;28;20057;-74
2023/11/24 13:16:03;;;;;;;13.25;5.43;;;;;;;8.03;100.00;101129.84;10373459;28;20119;-73
2023/11/24 13:21:08;;;;;;;18.98;4.93;;;;;;;7.57;100.00;101115.34;10371652;28;20088;-73
2023/11/24 13:26:10;;;;;;;11.23;5.28;;;;;;;7.51;100.00;101126.81;10371265;28;20374;-73
2023/11/24 13:31:10;;;;;;;17.20;4.47;;;;;;;7.81;100.00;101123.34;10372375;28;20037;-73
2023/11/24 13:36:10;;;;;;;11.48;3.92;;;;;;;7.88;100.00;101128.88;10372658;28;20440;-73
2023/11/24 13:41:12;;;;;;;14.00;5.45;;;;;;;7.59;100.00;101116.84;10371413;28;20135;-73
2023/11/24 13:46:13;;;;;;;9.13;3.28;;;;;;;7.32;100.00;101106.50;10372255;28;20029;-73
2023/11/24 13:51:13;;;;;;;15.65;4.38;;;;;;;7.78;100.00;101155.22;10373271;28;20097;-73
2023/11/24 13:56:14;;;;;;;7.38;2.67;;;;;;;7.06;100.00;101144.38;10371973;28;20411;-73
2023/11/24 14:01:16;;;;;;;7.43;2.50;;;;;;;6.51;100.00;101130.53;10371785;28;20111;-73
2023/11/24 14:06:18;;;;;;;15.70;4.20;;;;;;;6.69;100.00;101143.84;10372118;28;20038;-73
2023/11/24 14:11:18;;;;;;;16.63;5.00;;;;;;;6.93;100.00;101139.50;10371375;28;20553;-73
2023/11/24 14:16:21;;;;;;;11.60;5.53;;;;;;;6.94;100.00;101135.78;10373352;28;20038;-73
2023/11/24 14:21:21;;;;;;;6.03;2.67;;;;;;;6.54;100.00;101145.53;10379541;28;20092;-75
2023/11/24 14:26:23;;;;;;;12.75;4.82;;;;;;;6.27;100.00;101141.25;10378529;28;20026;-74
2023/11/24 14:31:24;;;;;;;9.18;3.00;;;;;;;6.39;100.00;101195.59;10379818;28;20053;-74
2023/11/24 14:36:26;;;;;;;2.80;2.22;;;;;;;6.04;100.00;101181.31;10379640;28;20048;-73
2023/11/24 14:41:30;;;;;;;2.70;2.22;;;;;;;5.87;100.00;101163.38;10378279;28;20437;-73
2023/11/24 14:46:31;;;;;;;9.77;2.38;;;;;;;5.76;100.00;101170.72;10379424;28;20034;-73
2023/11/24 14:51:35;;;;;;;9.60;2.63;;;;;;;5.98;100.00;101150.53;10379028;28;20092;-73
2023/11/24 14:56:39;;;;;;;8.93;4.00;;;;;;;6.25;100.00;101157.56;10379940;28;20042;-73
2023/11/24 15:01:42;;;;;;;15.63;2.90;;;;;;;6.18;100.00;101156.50;10378427;28;20069;-73
2023/11/24 15:06:44;;;;;;;16.50;3.05;;;;;;;6.10;100.00;101161.03;10377646;28;20163;-73
2023/11/24 15:11:45;;;;;;;8.00;3.30;;;;;;;6.11;100.00;101151.94;10378301;28;20071;-73
2023/11/24 15:16:57;;;;;;;7.68;3.42;;;;;;;6.05;100.00;101167.69;10377763;28;20030;-73
2023/11/24 15:22:02;;;;;;;13.13;4.45;;;;;;;5.82;100.00;101153.97;10376282;28;20045;-73
2023/11/24 15:27:06;;;;;;;11.90;2.70;;;;;;;5.42;100.00;101157.25;10377127;28;20462;-73
2023/11/24 15:32:08;;;;;;;11.80;4.53;;;;;;;5.40;100.00;101145.84;10377435;28;20095;-73
2023/11/24 15:37:08;;;;;;;8.82;4.43;;;;;;;5.48;100.00;101142.34;10377191;28;20030;-73
2023/11/24 15:42:12;;;;;;;15.15;4.57;;;;;;;5.63;100.00;101134.56;10377130;28;20099;-73
2023/11/24 15:47:13;;;;;;;11.48;4.82;;;;;;;5.82;100.00;101178.16;10376791;28;20327;-72
2023/11/24 15:52:13;;;;;;;9.38;4.05;;;;;;;5.70;100.00;101171.34;10375171;28;20037;-73
2023/11/24 15:57:14;;;;;;;17.70;5.95;;;;;;;5.49;100.00;101154.78;10376527;28;20076;-72
2023/11/24 16:02:22;;;;;;;24.00;4.95;;;;;;;5.76;100.00;101186.84;10374620;28;20104;-73
2023/11/24 16:07:27;;;;;;;9.18;2.50;;;;;;;5.72;100.00;101166.69;10360544;28;20052;-73
2023/11/24 16:12:33;;;;;;;9.98;3.28;;;;;;;5.73;100.00;101180.94;10376123;28;20042;-73
2023/11/24 16:17:33;;;;;;;13.15;3.83;;;;;;;5.50;100.00;101175.28;10374432;28;20041;-73
2023/11/24 16:22:34;;;;;;;9.95;2.80;;;;;;;5.39;100.00;101165.59;10375882;28;20042;-73
2023/11/24 16:27:38;;;;;;;18.58;5.05;;;;;;;5.34;100.00;101186.75;10375774;28;20415;-73
2023/11/24 16:32:39;;;;;;;9.07;4.80;;;;;;;5.11;100.00;101183.72;10357580;28;20112;-73
2023/11/24 16:37:39;;;;;;;25.38;4.32;;;;;;;4.93;100.00;101167.59;10375000;28;20129;-72
2023/11/24 16:42:40;;;;;;;19.02;4.85;;;;;;;4.85;100.00;101189.84;10374817;28;20038;-73
2023/11/24 16:47:42;;;;;;;9.85;3.30;;;;;;;4.82;100.00;101186.63;10375243;28;20036;-73
2023/11/24 16:52:43;;;;;;;22.25;4.82;;;;;;;5.01;100.00;101180.25;10374584;28;20045;-73
2023/11/24 16:57:43;;;;;;;18.50;5.22;;;;;;;5.13;100.00;101184.38;10374310;28;20516;-73
2023/11/24 17:02:49;;;;;;;7.78;4.63;;;;;;;5.13;100.00;101213.91;10374642;28;20092;-73
2023/11/24 17:07:49;;;;;;;15.73;4.55;;;;;;;5.31;100.00;101195.94;10374113;28;20033;-73
2023/11/24 17:12:50;;;;;;;20.60;5.10;;;;;;;5.36;100.00;101176.69;10374621;28;20049;-73
2023/11/24 17:17:51;;;;;;;13.45;3.58;;;;;;;5.47;100.00;101205.13;10374050;28;20026;-72
2023/11/24 17:22:51;;;;;;;12.70;3.30;;;;;;;5.55;100.00;101221.28;10371483;28;20030;-73
2023/11/24 17:27:52;;;;;;;1.35;1.25;;;;;;;5.11;100.00;101194.44;10373605;28;20106;-73
2023/11/24 17:32:52;;;;;;;14.30;3.40;;;;;;;4.94;100.00;101197.97;10373207;28;20184;-73
2023/11/24 17:37:53;;;;;;;7.97;3.58;;;;;;;4.81;100.00;101185.78;10373516;28;20065;-73
2023/11/24 17:42:53;;;;;;;12.18;4.55;;;;;;;4.89;100.00;101166.25;10371536;28;20060;-73
2023/11/24 17:47:54;;;;;;;14.82;4.60;;;;;;;5.22;100.00;101194.19;10370827;28;20029;-73
2023/11/24 17:52:54;;;;;;;22.27;6.30;;;;;;;5.38;100.00;101185.41;10372295;28;20045;-73
2023/11/24 17:57:55;;;;;;;3.97;2.95;;;;;;;5.42;100.00;101194.84;10372634;28;20509;-73
2023/11/24 18:02:56;;;;;;;9.05;3.58;;;;;;;5.61;100.00;101148.13;10371555;28;20054;-72
2023/11/24 18:08:02;;;;;;;17.33;5.72;;;;;;;5.77;100.00;101196.59;10372751;28;20116;-73
2023/11/24 18:13:03;;;;;;;7.53;4.27;;;;;;;5.87;100.00;101209.06;10371285;28;20030;-73
2023/11/24 18:18:03;;;;;;;10.77;3.67;;;;;;;5.86;100.00;101200.16;10369876;28;20041;-72
2023/11/24 18:23:03;;;;;;;6.85;3.10;;;;;;;5.94;100.00;101208.31;10372508;28;20057;-72
2023/11/24 18:28:04;;;;;;;19.10;5.88;;;;;;;6.05;100.00;101199.97;10373155;28;20049;-72
2023/11/24 18:33:04;;;;;;;25.58;4.80;;;;;;;6.13;100.00;101195.66;10371518;28;20436;-72
2023/11/24 18:38:05;;;;;;;22.30;5.72;;;;;;;6.21;100.00;101199.19;10371733;28;20049;-71
2023/11/24 18:43:05;;;;;;;19.40;6.72;;;;;;;6.31;100.00;101198.22;10370960;28;20053;-71
2023/11/24 18:48:06;;;;;;;12.38;5.03;;;;;;;6.44;100.00;101204.81;10371004;28;20516;-71
2023/11/24 18:53:06;;;;;;;14.60;4.15;;;;;;;6.29;100.00;101196.56;10372525;28;20045;-71
2023/11/24 18:58:06;;;;;;;15.90;4.38;;;;;;;6.29;100.00;101218.06;10371447;28;20030;-71
2023/11/24 19:03:07;;;;;;;14.93;5.72;;;;;;;6.43;100.00;101215.75;10374458;28;20057;-71
2023/11/24 19:08:07;;;;;;;8.55;4.07;;;;;;;6.43;100.00;101213.06;10379016;28;20033;-71
2023/11/24 19:13:08;;;;;;;22.75;6.53;;;;;;;6.56;100.00;101218.00;10379488;28;20351;-71
2023/11/24 19:18:10;;;;;;;6.30;3.28;;;;;;;6.55;100.00;101222.53;10378562;28;20037;-71
2023/11/24 19:23:10;;;;;;;17.92;4.82;;;;;;;6.82;100.00;101256.41;10377117;28;20038;-72
2023/11/24 19:28:13;;;;;;;19.05;4.82;;;;;;;6.63;100.00;101236.00;10378277;28;20038;-71
2023/11/24 19:33:13;;;;;;;31.60;6.13;;;;;;;6.17;100.00;101223.91;10378114;28;20045;-71
2023/11/24 19:38:13;;;;;;;12.65;4.13;;;;;;;5.89;100.00;101239.31;10378242;28;20041;-71
2023/11/24 19:43:14;;;;;;;28.88;6.05;;;;;;;5.82;100.00;101229.22;10377936;28;20128;-72
2023/11/24 19:48:15;;;;;;;15.07;4.90;;;;;;;5.85;100.00;101224.53;10376609;28;20041;-72
2023/11/24 19:53:15;;;;;;;11.10;4.50;;;;;;;5.89;100.00;101217.81;10376172;28;20064;-72
2023/11/24 19:58:16;;;;;;;15.48;5.15;;;;;;;6.28;100.00;101250.50;10377149;28;20072;-72
2023/11/24 20:03:16;;;;;;;10.13;3.70;;;;;;;6.01;100.00;101305.31;10377031;28;20054;-74
2023/11/24 20:08:17;;;;;;;0.50;0.50;;;;;;;5.24;100.00;101290.72;10375473;28;20034;-74
2023/11/24 20:13:17;;;;;;;0.68;0.68;;;;;;;4.94;100.00;101291.88;10376812;28;20041;-75
2023/11/24 20:18:19;;;;;;;5.18;1.98;;;;;;;4.77;100.00;101278.31;10377166;28;20209;-73
2023/11/24 20:23:19;;;;;;;0.50;0.50;;;;;;;4.72;100.00;101283.25;10376374;28;20120;-74
2023/11/24 20:28:20;;;;;;;2.45;2.35;;;;;;;4.62;100.00;101269.91;10375017;28;20106;-74
2023/11/24 20:33:20;;;;;;;0.60;0.60;;;;;;;4.72;100.00;101263.63;10376506;28;20124;-74
2023/11/24 20:38:22;;;;;;;1.33;1.33;;;;;;;4.84;100.00;101267.81;10392148;28;20116;-74
2023/11/24 20:43:25;;;;;;;0.50;0.50;;;;;;;4.98;100.00;101266.44;10374884;28;20056;-74
2023/11/24 20:48:25;;;;;;;0.50;0.50;;;;;;;5.20;100.00;101274.06;10375518;28;20030;-74
2023/11/24 20:53:28;;;;;;;0.50;0.50;;;;;;;5.35;100.00;101288.63;10374871;28;20460;-74
2023/11/24 20:58:29;;;;;;;0.50;0.50;;;;;;;5.48;100.00;101290.06;10373412;28;20034;-74
2023/11/24 21:03:29;;;;;;;5.00;4.53;;;;;;;5.63;100.00;101306.50;10374535;28;20058;-74
2023/11/24 21:08:30;;;;;;;0.50;0.50;;;;;;;5.85;100.00;101322.13;10374642;28;20116;-74
2023/11/24 21:13:30;;;;;;;0.65;0.65;;;;;;;5.47;100.00;101316.09;10375243;28;20116;-74
2023/11/24 21:18:30;;;;;;;0.52;0.52;;;;;;;5.32;100.00;101315.78;10372512;28;20073;-75
2023/11/24 21:23:31;;;;;;;3.70;3.00;;;;;;;5.43;100.00;101351.47;10373933;28;20148;-74
2023/11/24 21:28:31;;;;;;;0.40;0.40;;;;;;;5.36;100.00;101344.03;10371814;28;20065;-75
2023/11/24 21:33:31;;;;;;;0.40;0.40;;;;;;;5.18;100.00;101328.91;10374435;28;20026;-74
2023/11/24 21:38:32;;;;;;;0.50;0.50;;;;;;;5.03;100.00;101309.78;10372397;28;20080;-74
2023/11/24 21:43:32;;;;;;;1.08;1.08;;;;;;;4.85;100.00;101332.06;10373290;28;20417;-74
2023/11/24 21:48:33;;;;;;;0.50;0.50;;;;;;;5.02;100.00;101343.00;10372855;28;20477;-73
2023/11/24 21:53:33;;;;;;;0.40;0.40;;;;;;;5.21;100.00;101407.31;10373451;28;20123;-73
2023/11/24 21:58:34;;;;;;;0.50;0.50;;;;;;;4.55;100.00;101381.47;10372379;28;20377;-75
2023/11/24 22:03:35;;;;;;;5.70;2.10;;;;;;;4.27;100.00;101371.66;10373621;28;20054;-74
2023/11/24 22:08:37;;;;;;;0.50;0.50;;;;;;;4.20;100.00;101382.13;10371849;28;20126;-74
2023/11/24 22:13:37;;;;;;;0.50;0.50;;;;;;;4.18;100.00;101378.75;10371032;28;20091;-75
2023/11/24 22:18:38;;;;;;;4.78;1.35;;;;;;;4.37;100.00;101391.25;10369767;28;20034;-73
2023/11/24 22:23:38;;;;;;;1.73;1.67;;;;;;;4.41;100.00;101372.06;10372136;28;20045;-74
2023/11/24 22:28:39;;;;;;;0.50;0.50;;;;;;;4.37;100.00;101373.34;10369497;28;20038;-73
2023/11/24 22:33:39;;;;;;;0.65;0.65;;;;;;;4.22;100.00;101364.06;10370961;28;20481;-74
2023/11/24 22:38:39;;;;;;;0.60;0.60;;;;;;;4.33;100.00;101360.38;10374621;28;20439;-73
2023/11/24 22:43:41;;;;;;;4.13;1.63;;;;;;;4.57;100.00;101389.38;10378755;28;20042;-74
2023/11/24 22:48:41;;;;;;;0.90;0.90;;;;;;;4.54;100.00;101397.72;10379634;28;20097;-73
2023/11/24 22:53:42;;;;;;;0.57;0.57;;;;;;;4.57;100.00;101394.75;10378314;28;20389;-74
2023/11/24 22:58:42;;;;;;;0.50;0.50;;;;;;;4.52;100.00;101397.84;10378177;28;20038;-73